createdAt,value
2023-05-26T00:00:32.393Z,818.9
2023-05-26T00:02:16.094Z,816.8
2023-05-26T00:03:59.807Z,817
2023-05-26T00:05:43.500Z,818.8
2023-05-26T00:07:27.201Z,816
2023-05-26T00:09:10.910Z,810.4
2023-05-26T00:10:54.634Z,807.8
2023-05-26T00:12:38.348Z,806.9
2023-05-26T00:14:22.010Z,805.9
2023-05-26T00:16:05.724Z,804.5
2023-05-26T00:17:49.419Z,803.5
2023-05-26T00:19:33.138Z,802.5
2023-05-26T00:21:16.820Z,801.9
2023-05-26T00:23:00.523Z,801.6
2023-05-26T00:24:44.240Z,801.1
2023-05-26T00:26:27.927Z,802.1
2023-05-26T00:28:11.615Z,801.9
2023-05-26T00:29:55.331Z,800.6
2023-05-26T00:31:39.030Z,800.6
2023-05-26T00:33:22.723Z,796.8
2023-05-26T00:35:06.423Z,794.2
2023-05-26T00:36:50.135Z,789.9
2023-05-26T00:38:33.832Z,788.7
2023-05-26T00:40:17.558Z,785.9
2023-05-26T00:42:01.259Z,787.4
2023-05-26T00:43:44.976Z,786.8
2023-05-26T00:45:28.623Z,786.3
2023-05-26T00:47:12.345Z,790.5
2023-05-26T00:48:56.038Z,791.1
2023-05-26T00:50:39.743Z,794.5
2023-05-26T00:52:23.447Z,797.4
2023-05-26T00:54:07.147Z,797.2
2023-05-26T00:55:50.842Z,795.5
2023-05-26T00:57:34.540Z,792.3
2023-05-26T00:59:18.253Z,791
2023-05-26T01:01:01.982Z,789.2
2023-05-26T01:02:45.666Z,784.8
2023-05-26T01:04:29.374Z,782.6
2023-05-26T01:06:13.067Z,780.6
2023-05-26T01:07:56.762Z,781.3
2023-05-26T01:09:40.460Z,781.5
2023-05-26T01:11:24.172Z,778.4
2023-05-26T01:13:07.867Z,777.2
2023-05-26T01:14:51.576Z,773.8
2023-05-26T01:16:35.303Z,773.6
2023-05-26T01:18:18.987Z,775
2023-05-26T01:20:02.677Z,771.8
2023-05-26T01:21:46.396Z,771.5
2023-05-26T01:23:30.093Z,772.9
2023-05-26T01:25:13.803Z,771.2
2023-05-26T01:26:57.498Z,769.9
2023-05-26T01:28:41.188Z,768.1
2023-05-26T01:30:24.900Z,766.2
2023-05-26T01:32:08.605Z,764.5
2023-05-26T01:33:52.294Z,764.4
2023-05-26T01:35:35.999Z,764
2023-05-26T01:37:19.698Z,764
2023-05-26T01:39:03.416Z,763.1
2023-05-26T01:40:47.111Z,764.3
2023-05-26T01:42:30.810Z,763.4
2023-05-26T01:44:14.513Z,759.5
2023-05-26T01:45:58.224Z,757.5
2023-05-26T01:47:41.919Z,755.9
2023-05-26T01:49:25.620Z,755.2
2023-05-26T01:51:09.330Z,753.1
2023-05-26T01:52:53.028Z,753
2023-05-26T01:54:36.725Z,754.5
2023-05-26T01:56:20.414Z,754.5
2023-05-26T01:58:04.123Z,755.7
2023-05-26T01:59:47.829Z,753.9
2023-05-26T02:01:31.546Z,752
2023-05-26T02:03:15.254Z,750.4
2023-05-26T02:04:58.932Z,746.1
2023-05-26T02:06:42.650Z,745.5
2023-05-26T02:10:10.058Z,746.1
2023-05-26T02:11:53.736Z,751.3
2023-05-26T02:13:37.436Z,752.2
2023-05-26T02:17:04.852Z,749.8
2023-05-26T02:18:48.567Z,747.7
2023-05-26T02:20:32.266Z,746.5
2023-05-26T02:22:15.952Z,745.9
2023-05-26T02:23:59.649Z,742.5
2023-05-26T02:25:43.338Z,741.3
2023-05-26T02:27:27.080Z,742.3
2023-05-26T02:29:10.789Z,741
2023-05-26T02:30:54.460Z,741.4
2023-05-26T02:32:38.175Z,741.2
2023-05-26T02:34:21.908Z,738.4
2023-05-26T02:36:05.571Z,737.3
2023-05-26T02:37:49.267Z,735.2
2023-05-26T02:39:32.984Z,732.8
2023-05-26T02:41:16.675Z,733
2023-05-26T02:43:00.364Z,733.5
2023-05-26T02:44:44.110Z,736.9
2023-05-26T02:46:27.773Z,733.1
2023-05-26T02:48:11.476Z,729.9
2023-05-26T02:49:55.177Z,731.3
2023-05-26T02:51:38.892Z,728.2
2023-05-26T02:53:22.587Z,727.6
2023-05-26T02:55:06.286Z,725.5
2023-05-26T02:56:50.001Z,722.9
2023-05-26T02:58:33.698Z,722.3
2023-05-26T03:00:17.409Z,722.2
2023-05-26T03:02:01.112Z,720.7
2023-05-26T03:03:44.793Z,721.4
2023-05-26T03:05:28.532Z,721.8
2023-05-26T03:07:12.227Z,721.2
2023-05-26T03:08:55.918Z,720.6
2023-05-26T03:10:39.601Z,718
2023-05-26T03:12:23.309Z,715
2023-05-26T03:14:07.026Z,714.6
2023-05-26T03:15:50.714Z,713.5
2023-05-26T03:17:34.413Z,712.6
2023-05-26T03:19:18.137Z,713.1
2023-05-26T03:21:01.826Z,713.5
2023-05-26T03:22:45.530Z,714.7
2023-05-26T03:24:29.222Z,714.8
2023-05-26T03:26:12.925Z,713.1
2023-05-26T03:27:56.630Z,712.3
2023-05-26T03:29:40.332Z,712.3
2023-05-26T03:31:24.056Z,709.7
2023-05-26T03:33:07.727Z,709.1
2023-05-26T03:34:51.466Z,710.1
2023-05-26T03:36:35.138Z,709
2023-05-26T03:38:18.851Z,707.7
2023-05-26T03:40:02.525Z,707.3
2023-05-26T03:41:46.227Z,704.4
2023-05-26T03:43:29.931Z,704.5
2023-05-26T03:45:13.638Z,703.4
2023-05-26T03:46:57.339Z,703.4
2023-05-26T03:48:41.065Z,704
2023-05-26T03:50:24.764Z,704.3
2023-05-26T03:52:08.456Z,702
2023-05-26T03:53:52.145Z,702.4
2023-05-26T03:55:35.847Z,701.2
2023-05-26T03:57:19.550Z,700.3
2023-05-26T03:59:03.269Z,700.7
2023-05-26T04:00:46.956Z,696.6
2023-05-26T04:02:30.672Z,692.9
2023-05-26T04:04:14.360Z,690.3
2023-05-26T04:05:58.091Z,688.2
2023-05-26T04:07:41.764Z,686.1
2023-05-26T04:09:25.439Z,683.8
2023-05-26T04:11:09.166Z,680.9
2023-05-26T04:12:52.861Z,678.9
2023-05-26T04:14:36.588Z,681.8
2023-05-26T04:16:20.278Z,683.6
2023-05-26T04:18:03.986Z,687.5
2023-05-26T04:19:47.681Z,691.3
2023-05-26T04:21:31.381Z,690.5
2023-05-26T04:23:15.095Z,692.8
2023-05-26T04:24:58.781Z,696.7
2023-05-26T04:26:42.495Z,695.5
2023-05-26T04:28:26.249Z,691.3
2023-05-26T04:31:53.586Z,687.8
2023-05-26T04:33:37.302Z,686.8
2023-05-26T04:35:21.002Z,682.1
2023-05-26T04:37:04.707Z,682.6
2023-05-26T04:38:48.442Z,684.4
2023-05-26T04:40:32.107Z,682
2023-05-26T04:42:15.807Z,678.3
2023-05-26T04:43:59.505Z,676.8
2023-05-26T04:45:43.216Z,675.6
2023-05-26T04:49:10.646Z,675.9
2023-05-26T04:50:54.319Z,676.8
2023-05-26T04:52:38.029Z,676
2023-05-26T04:54:21.707Z,677.2
2023-05-26T04:56:05.408Z,677.1
2023-05-26T04:57:49.124Z,673.7
2023-05-26T04:59:32.842Z,671.9
2023-05-26T05:01:16.541Z,670.8
2023-05-26T05:03:00.258Z,667.1
2023-05-26T05:04:43.929Z,667.2
2023-05-26T05:06:27.633Z,669.2
2023-05-26T05:08:11.341Z,666.2
2023-05-26T05:09:55.123Z,666.1
2023-05-26T05:11:38.737Z,666.3
2023-05-26T05:13:22.443Z,668
2023-05-26T05:15:06.312Z,665.2
2023-05-26T05:16:49.875Z,662.9
2023-05-26T05:18:33.605Z,660.9
2023-05-26T05:22:00.961Z,662.1
2023-05-26T05:23:44.653Z,662.7
2023-05-26T05:25:28.347Z,662
2023-05-26T05:27:12.063Z,660.9
2023-05-26T05:28:55.817Z,661.5
2023-05-26T05:30:39.532Z,658.7
2023-05-26T05:32:23.166Z,660
2023-05-26T05:34:06.857Z,659.3
2023-05-26T05:35:50.613Z,655.7
2023-05-26T05:37:34.351Z,655.6
2023-05-26T05:39:17.970Z,653.4
2023-05-26T05:41:01.654Z,651.3
2023-05-26T05:42:45.505Z,649.7
2023-05-26T05:44:29.255Z,650.3
2023-05-26T05:46:12.997Z,648.7
2023-05-26T05:47:56.475Z,647.3
2023-05-26T05:49:40.269Z,651.2
2023-05-26T05:51:24.058Z,655.2
2023-05-26T05:53:07.563Z,655.7
2023-05-26T05:54:51.308Z,655.1
2023-05-26T05:56:35.165Z,655.2
2023-05-26T05:58:18.697Z,652
2023-05-26T06:00:02.360Z,651.7
2023-05-26T06:01:46.153Z,650.6
2023-05-26T06:03:29.789Z,646.6
2023-05-26T06:05:13.518Z,646.4
2023-05-26T06:06:57.251Z,645.8
2023-05-26T06:08:40.901Z,646.9
2023-05-26T06:10:24.609Z,648.2
2023-05-26T06:12:08.306Z,653.3
2023-05-26T06:13:52.006Z,655.2
2023-05-26T06:15:35.776Z,657.5
2023-05-26T06:17:19.478Z,659.6
2023-05-26T06:19:03.238Z,658.6
2023-05-26T06:20:46.838Z,655.6
2023-05-26T06:22:30.627Z,652.4
2023-05-26T06:24:14.216Z,652
2023-05-26T06:25:57.943Z,655.5
2023-05-26T06:27:41.643Z,659.2
2023-05-26T06:29:25.318Z,661.3
2023-05-26T06:31:09.107Z,660
2023-05-26T06:32:52.741Z,658.4
2023-05-26T06:34:36.506Z,660.3
2023-05-26T06:36:20.155Z,661.2
2023-05-26T06:38:03.824Z,664.7
2023-05-26T06:39:47.539Z,683.1
2023-05-26T06:41:31.242Z,741.4
2023-05-26T06:43:14.927Z,778.1
2023-05-26T06:44:58.642Z,765.8
2023-05-26T06:46:42.363Z,752.1
2023-05-26T06:48:26.053Z,743
2023-05-26T06:50:09.931Z,735.7
2023-05-26T06:51:53.545Z,729.7
2023-05-26T06:53:37.292Z,727.4
2023-05-26T06:55:20.888Z,725.9
2023-05-26T06:57:04.582Z,728.3
2023-05-26T06:58:48.303Z,725.4
2023-05-26T07:00:32.019Z,717.1
2023-05-26T07:02:15.782Z,719.5
2023-05-26T07:03:59.477Z,723.6
2023-05-26T07:05:43.144Z,727.6
2023-05-26T07:07:26.933Z,728.5
2023-05-26T07:09:10.463Z,729.5
2023-05-26T07:10:54.218Z,730
2023-05-26T07:12:38.003Z,730.5
2023-05-26T07:14:21.613Z,728.7
2023-05-26T07:16:05.337Z,730.4
2023-05-26T07:17:49.132Z,729.6
2023-05-26T07:19:32.717Z,731.3
2023-05-26T07:21:16.504Z,729
2023-05-26T07:23:00.202Z,731.2
2023-05-26T07:24:43.806Z,732
2023-05-26T07:26:27.511Z,732.1
2023-05-26T07:28:11.479Z,734.4
2023-05-26T07:29:54.925Z,735.7
2023-05-26T07:31:38.692Z,725.3
2023-05-26T07:35:06.063Z,693.7
2023-05-26T07:36:49.821Z,700.9
2023-05-26T07:38:33.452Z,701.6
2023-05-26T07:40:17.131Z,696.4
2023-05-26T07:42:00.932Z,670.1
2023-05-26T07:43:44.567Z,686.2
2023-05-26T07:45:28.234Z,692.9
2023-05-26T07:47:11.974Z,677.6
2023-05-26T07:48:55.638Z,666.7
2023-05-26T07:50:39.430Z,668.2
2023-05-26T07:52:23.084Z,668.7
2023-05-26T07:54:06.749Z,673.1
2023-05-26T07:55:50.592Z,678.8
2023-05-26T07:57:34.241Z,678.3
2023-05-26T07:59:17.918Z,680.6
2023-05-26T08:01:01.639Z,679.7
2023-05-26T08:02:45.320Z,678.9
2023-05-26T08:04:29.046Z,676.5
2023-05-26T08:06:12.709Z,673
2023-05-26T08:07:56.471Z,670.5
2023-05-26T08:09:40.065Z,671.2
2023-05-26T08:11:23.970Z,670.8
2023-05-26T08:13:07.507Z,672.1
2023-05-26T08:14:57.609Z,673.3
2023-05-26T08:16:34.888Z,674.3
2023-05-26T08:18:18.600Z,673.4
2023-05-26T08:20:02.271Z,674.5
2023-05-26T08:21:46.005Z,674.4
2023-05-26T08:23:29.784Z,675
2023-05-26T08:25:13.419Z,676
2023-05-26T08:26:57.162Z,676.2
2023-05-26T08:28:40.821Z,676.7
2023-05-26T08:30:24.522Z,677
2023-05-26T08:32:08.191Z,676.3
2023-05-26T08:33:52.047Z,673.5
2023-05-26T08:35:35.607Z,671.7
2023-05-26T08:37:19.349Z,673.9
2023-05-26T08:39:03.002Z,670.8
2023-05-26T08:40:46.842Z,669.6
2023-05-26T08:42:30.414Z,671.3
2023-05-26T08:44:14.147Z,674.3
2023-05-26T08:45:57.862Z,676.8
2023-05-26T08:49:25.239Z,677.5
2023-05-26T08:51:09.032Z,682.2
2023-05-26T08:52:52.769Z,693.2
2023-05-26T08:54:36.331Z,696.9
2023-05-26T08:56:20.191Z,697
2023-05-26T08:58:03.736Z,698.7
2023-05-26T08:59:47.447Z,702.4
2023-05-26T09:01:31.343Z,703.8
2023-05-26T09:03:15.152Z,703
2023-05-26T09:04:58.804Z,702.4
2023-05-26T09:06:42.249Z,704.7
2023-05-26T09:08:26.082Z,708.2
2023-05-26T09:10:09.838Z,707
2023-05-26T09:11:53.527Z,707
2023-05-26T09:13:37.225Z,709.9
2023-05-26T09:15:20.794Z,711.3
2023-05-26T09:17:04.613Z,710
2023-05-26T09:18:48.332Z,709.4
2023-05-26T09:20:31.992Z,712.3
2023-05-26T09:22:15.736Z,713.8
2023-05-26T09:23:59.471Z,714.4
2023-05-26T09:25:43.160Z,715.8
2023-05-26T09:27:26.708Z,714.1
2023-05-26T09:29:10.403Z,711.2
2023-05-26T09:30:54.258Z,711.8
2023-05-26T09:32:37.998Z,711
2023-05-26T09:34:21.670Z,709.7
2023-05-26T09:36:05.410Z,709.6
2023-05-26T09:37:49.032Z,708.9
2023-05-26T09:39:32.774Z,706.5
2023-05-26T09:41:16.484Z,708.9
2023-05-26T09:43:00.225Z,714.2
2023-05-26T09:44:43.722Z,715.6
2023-05-26T09:46:27.426Z,719.1
2023-05-26T09:48:11.301Z,698.3
2023-05-26T09:49:55.028Z,656.2
2023-05-26T09:51:38.600Z,656.2
2023-05-26T09:53:22.582Z,661.4
2023-05-26T09:55:05.935Z,675.4
2023-05-26T09:56:49.841Z,679.3
2023-05-26T09:58:33.449Z,669.9
2023-05-26T10:00:17.127Z,671
2023-05-26T10:02:00.999Z,666.8
2023-05-26T10:03:44.769Z,669.4
2023-05-26T10:05:28.252Z,669.1
2023-05-26T10:07:11.864Z,668.7
2023-05-26T10:08:55.663Z,666
2023-05-26T10:10:39.396Z,663.7
2023-05-26T10:12:22.937Z,660.2
2023-05-26T10:14:06.825Z,657.5
2023-05-26T10:15:50.331Z,653
2023-05-26T10:17:34.053Z,653.6
2023-05-26T10:19:17.753Z,667.7
2023-05-26T10:21:01.605Z,686.9
2023-05-26T10:22:45.304Z,691.6
2023-05-26T10:24:29.081Z,692.8
2023-05-26T10:26:12.549Z,695.5
2023-05-26T10:27:56.439Z,700
2023-05-26T10:29:40.142Z,711.7
2023-05-26T10:31:23.779Z,724.5
2023-05-26T10:33:07.539Z,809.6
2023-05-26T10:34:51.247Z,815.3
2023-05-26T10:36:34.934Z,784.6
2023-05-26T10:38:18.677Z,760.7
2023-05-26T10:40:02.170Z,732.7
2023-05-26T10:41:46.087Z,715.3
2023-05-26T10:43:29.744Z,709
2023-05-26T10:45:13.503Z,702.3
2023-05-26T10:46:57.093Z,688.3
2023-05-26T10:48:40.710Z,678.8
2023-05-26T10:50:24.589Z,669.1
2023-05-26T10:52:08.411Z,659.2
2023-05-26T10:53:51.929Z,657.5
2023-05-26T10:55:35.700Z,655
2023-05-26T10:57:19.344Z,653.6
2023-05-26T10:59:03.011Z,656.2
2023-05-26T11:00:46.837Z,658.5
2023-05-26T11:02:30.480Z,656
2023-05-26T11:04:14.030Z,652.6
2023-05-26T11:05:57.909Z,648.8
2023-05-26T11:07:41.555Z,642
2023-05-26T11:09:25.262Z,636.3
2023-05-26T11:11:08.936Z,571.9
2023-05-26T11:12:52.714Z,529
2023-05-26T11:14:36.377Z,551.7
2023-05-26T11:16:19.900Z,562.2
2023-05-26T11:18:03.753Z,591.5
2023-05-26T11:19:47.524Z,610.5
2023-05-26T11:21:31.158Z,609.7
2023-05-26T11:23:14.951Z,608.3
2023-05-26T11:24:58.580Z,607.4
2023-05-26T11:26:42.322Z,604.6
2023-05-26T11:28:25.967Z,602.8
2023-05-26T11:30:09.526Z,604.7
2023-05-26T11:31:53.245Z,607.5
2023-05-26T11:33:37.078Z,607.7
2023-05-26T11:35:20.800Z,606.2
2023-05-26T11:37:04.523Z,603.7
2023-05-26T11:38:48.210Z,602.3
2023-05-26T11:40:31.845Z,601.3
2023-05-26T11:42:15.662Z,601
2023-05-26T11:43:59.382Z,599.5
2023-05-26T11:47:26.666Z,598.6
2023-05-26T11:49:10.430Z,600.3
2023-05-26T11:50:54.169Z,602
2023-05-26T11:52:37.883Z,601.3
2023-05-26T11:54:21.563Z,601.3
2023-05-26T11:56:05.066Z,605.4
2023-05-26T11:57:48.956Z,608.7
2023-05-26T11:59:32.530Z,609.1
2023-05-26T12:01:16.332Z,606.8
2023-05-26T12:02:59.994Z,607.6
2023-05-26T12:04:43.577Z,605.3
2023-05-26T12:06:27.464Z,604.4
2023-05-26T12:08:10.968Z,607
2023-05-26T12:09:54.888Z,606.9
2023-05-26T12:11:38.562Z,604.7
2023-05-26T12:13:22.221Z,605.2
2023-05-26T12:15:05.781Z,606
2023-05-26T12:16:49.816Z,606.1
2023-05-26T12:18:33.367Z,606.5
2023-05-26T12:20:17.126Z,604.3
2023-05-26T12:22:00.855Z,602.5
2023-05-26T12:23:44.305Z,603.9
2023-05-26T12:25:27.989Z,605.3
2023-05-26T12:27:11.941Z,606
2023-05-26T12:28:55.617Z,604.8
2023-05-26T12:30:39.346Z,606.8
2023-05-26T12:32:23.109Z,608
2023-05-26T12:34:06.699Z,609.3
2023-05-26T12:35:50.450Z,605.2
2023-05-26T12:37:34.059Z,602.5
2023-05-26T12:39:17.852Z,602.2
2023-05-26T12:41:01.501Z,603.1
2023-05-26T12:42:45.198Z,603.2
2023-05-26T12:44:28.957Z,604.7
2023-05-26T12:46:12.700Z,605.9
2023-05-26T12:47:56.376Z,603.3
2023-05-26T12:49:40.102Z,604.6
2023-05-26T12:51:23.763Z,604.2
2023-05-26T12:53:07.490Z,604
2023-05-26T12:54:51.211Z,605.6
2023-05-26T12:56:34.905Z,608.9
2023-05-26T12:58:18.547Z,607.7
2023-05-26T13:00:02.122Z,609.2
2023-05-26T13:01:45.999Z,612.1
2023-05-26T13:03:29.674Z,615
2023-05-26T13:05:13.223Z,618.7
2023-05-26T13:06:57.078Z,628.9
2023-05-26T13:08:40.854Z,641.3
2023-05-26T13:10:24.531Z,642
2023-05-26T13:12:08.186Z,643.6
2023-05-26T13:13:51.920Z,647
2023-05-26T13:15:35.596Z,647.2
2023-05-26T13:17:19.225Z,645.1
2023-05-26T13:19:03.006Z,647.5
2023-05-26T13:20:46.708Z,653.6
2023-05-26T13:22:30.349Z,664.6
2023-05-26T13:24:14.157Z,687.2
2023-05-26T13:25:57.855Z,712.9
2023-05-26T13:27:41.354Z,710.6
2023-05-26T13:29:25.244Z,700.8
2023-05-26T13:31:08.742Z,694.6
2023-05-26T13:32:52.438Z,693.2
2023-05-26T13:34:36.187Z,690.8
2023-05-26T13:36:19.936Z,689.9
2023-05-26T13:38:03.542Z,690.4
2023-05-26T13:39:47.420Z,688.2
2023-05-26T13:41:31.104Z,690
2023-05-26T13:43:14.830Z,692.7
2023-05-26T13:44:58.335Z,692.8
2023-05-26T13:46:42.050Z,693.7
2023-05-26T13:48:25.759Z,694.8
2023-05-26T13:50:09.436Z,695.4
2023-05-26T13:51:53.207Z,689
2023-05-26T13:53:36.867Z,686.5
2023-05-26T13:55:20.680Z,684.4
2023-05-26T13:57:04.500Z,686.6
2023-05-26T13:58:48.139Z,683.5
2023-05-26T14:00:31.820Z,680.8
2023-05-26T14:02:15.355Z,677.5
2023-05-26T14:03:59.096Z,675.3
2023-05-26T14:05:42.771Z,671.1
2023-05-26T14:07:26.468Z,665.7
2023-05-26T14:09:10.348Z,661
2023-05-26T14:10:53.872Z,661.6
2023-05-26T14:12:37.689Z,659.1
2023-05-26T14:14:21.489Z,657.3
2023-05-26T14:16:05.143Z,656.7
2023-05-26T14:17:48.688Z,655.9
2023-05-26T14:19:32.392Z,655.8
2023-05-26T14:21:28.604Z,653.5
2023-05-26T14:22:59.998Z,647.6
2023-05-26T14:24:43.479Z,645.3
2023-05-26T14:26:27.347Z,640.8
2023-05-26T14:28:10.891Z,637.3
2023-05-26T14:29:54.672Z,634.4
2023-05-26T14:31:38.292Z,627.4
2023-05-26T14:33:22.078Z,623.1
2023-05-26T14:35:05.716Z,619.7
2023-05-26T14:36:49.434Z,617.9
2023-05-26T14:38:33.093Z,616.6
2023-05-26T14:40:16.830Z,614.9
2023-05-26T14:42:00.696Z,609.7
2023-05-26T14:43:44.281Z,609.6
2023-05-26T14:45:27.903Z,607.8
2023-05-26T14:47:11.738Z,605.4
2023-05-26T14:48:55.487Z,605.1
2023-05-26T14:50:39.154Z,602.3
2023-05-26T14:52:22.905Z,598.4
2023-05-26T14:54:06.622Z,594.9
2023-05-26T14:55:50.368Z,595.6
2023-05-26T14:57:33.994Z,593.5
2023-05-26T14:59:17.781Z,593.4
2023-05-26T15:01:01.401Z,589.9
2023-05-26T15:02:45.156Z,587
2023-05-26T15:04:28.754Z,584.1
2023-05-26T15:06:12.546Z,583.9
2023-05-26T15:07:56.246Z,584.8
2023-05-26T15:09:40.012Z,585.2
2023-05-26T15:11:23.706Z,586.4
2023-05-26T15:13:07.343Z,590.6
2023-05-26T15:14:51.074Z,591.3
2023-05-26T15:16:34.585Z,588.7
2023-05-26T15:18:18.281Z,591.4
2023-05-26T15:20:01.966Z,593.3
2023-05-26T15:21:46.161Z,595.4
2023-05-26T15:23:29.525Z,594.9
2023-05-26T15:25:13.391Z,591.6
2023-05-26T15:26:57.019Z,588.6
2023-05-26T15:28:40.731Z,588.2
2023-05-26T15:30:24.167Z,595.1
2023-05-26T15:32:08.085Z,607.3
2023-05-26T15:33:51.772Z,619.8
2023-05-26T15:35:35.493Z,645.1
2023-05-26T15:37:19.169Z,692.4
2023-05-26T15:39:02.935Z,710.1
2023-05-26T15:40:46.840Z,718.8
2023-05-26T15:42:30.079Z,723.4
2023-05-26T15:44:13.995Z,738.9
2023-05-26T15:45:57.538Z,770.4
2023-05-26T15:47:41.385Z,792.6
2023-05-26T15:49:25.066Z,796.6
2023-05-26T15:52:52.501Z,783.6
2023-05-26T15:54:36.127Z,774.5
2023-05-26T15:56:19.782Z,766.4
2023-05-26T15:58:03.433Z,762.9
2023-05-26T15:59:47.119Z,759.1
2023-05-26T16:01:30.810Z,753.7
2023-05-26T16:03:14.686Z,752.3
2023-05-26T16:04:58.415Z,753.1
2023-05-26T16:06:42.110Z,750.1
2023-05-26T16:08:25.807Z,747.8
2023-05-26T16:10:09.628Z,749.1
2023-05-26T16:11:53.526Z,746.5
2023-05-26T16:13:36.924Z,743.2
2023-05-26T16:15:20.915Z,741
2023-05-26T16:17:04.276Z,739.4
2023-05-26T16:18:48.105Z,735.2
2023-05-26T16:20:31.521Z,735.8
2023-05-26T16:22:15.519Z,735.9
2023-05-26T16:23:59.165Z,734.2
2023-05-26T16:25:42.656Z,733.8
2023-05-26T16:27:26.536Z,731.7
2023-05-26T16:29:10.242Z,729.7
2023-05-26T16:30:53.751Z,728.3
2023-05-26T16:32:37.652Z,726
2023-05-26T16:34:21.396Z,723.2
2023-05-26T16:36:04.954Z,720.1
2023-05-26T16:37:48.575Z,717.4
2023-05-26T16:39:32.319Z,718.2
2023-05-26T16:41:15.990Z,723
2023-05-26T16:42:59.662Z,724.7
2023-05-26T16:44:43.561Z,722.9
2023-05-26T16:46:27.164Z,716.3
2023-05-26T16:48:10.784Z,716.3
2023-05-26T16:49:54.479Z,714
2023-05-26T16:51:38.262Z,715.1
2023-05-26T16:53:21.892Z,717.3
2023-05-26T16:55:05.649Z,716
2023-05-26T16:56:49.318Z,714.2
2023-05-26T16:58:33.137Z,713.2
2023-05-26T17:00:16.696Z,711.2
2023-05-26T17:02:00.401Z,710.2
2023-05-26T17:03:44.124Z,707.3
2023-05-26T17:05:27.800Z,707.4
2023-05-26T17:07:11.528Z,707.1
2023-05-26T17:08:55.231Z,704.4
2023-05-26T17:10:38.920Z,703.8
2023-05-26T17:12:22.799Z,704.9
2023-05-26T17:14:06.503Z,707.2
2023-05-26T17:15:50.071Z,706.7
2023-05-26T17:19:17.431Z,707.3
2023-05-26T17:21:00.810Z,710.5
2023-05-26T17:22:44.507Z,711.7
2023-05-26T17:24:28.225Z,711.8
2023-05-26T17:26:12.103Z,710.8
2023-05-26T17:27:55.627Z,708.2
2023-05-26T17:29:39.418Z,708
2023-05-26T17:31:23.039Z,706.4
2023-05-26T17:33:06.730Z,703.7
2023-05-26T17:34:50.442Z,703
2023-05-26T17:36:34.313Z,702.6
2023-05-26T17:38:17.849Z,702.4
2023-05-26T17:40:01.541Z,703.6
2023-05-26T17:41:45.261Z,700.2
2023-05-26T17:43:28.952Z,696
2023-05-26T17:45:12.769Z,695.8
2023-05-26T17:46:56.443Z,697.2
2023-05-26T17:48:40.219Z,698.4
2023-05-26T17:50:23.963Z,696.5
2023-05-26T17:52:07.461Z,697.7
2023-05-26T17:53:51.290Z,697.8
2023-05-26T17:55:34.853Z,696.2
2023-05-26T17:57:18.639Z,695
2023-05-26T17:59:02.477Z,698.5
2023-05-26T18:00:45.987Z,700.7
2023-05-26T18:02:29.804Z,701.2
2023-05-26T18:04:13.381Z,703.5
2023-05-26T18:05:57.099Z,700.1
2023-05-26T18:07:40.958Z,700.9
2023-05-26T18:09:24.688Z,699.2
2023-05-26T18:11:08.294Z,697.5
2023-05-26T18:12:52.083Z,698
2023-05-26T18:14:35.717Z,698.3
2023-05-26T18:16:19.348Z,696.1
2023-05-26T18:18:03.134Z,699.3
2023-05-26T18:19:46.691Z,701.5
2023-05-26T18:21:30.416Z,701.3
2023-05-26T18:23:14.286Z,700.5
2023-05-26T18:24:57.861Z,700
2023-05-26T18:26:41.511Z,699.9
2023-05-26T18:28:25.464Z,702.3
2023-05-26T18:30:08.919Z,703.9
2023-05-26T18:31:52.649Z,703.6
2023-05-26T18:33:36.475Z,701.2
2023-05-26T18:35:20.131Z,699.8
2023-05-26T18:37:03.721Z,700.1
2023-05-26T18:38:47.432Z,702.6
2023-05-26T18:40:31.112Z,702.7
2023-05-26T18:42:14.853Z,701.2
2023-05-26T18:45:42.545Z,700.1
2023-05-26T18:47:26.104Z,699.1
2023-05-26T18:49:09.607Z,697.5
2023-05-26T18:50:53.447Z,695
2023-05-26T18:52:36.999Z,690.7
2023-05-26T18:54:20.873Z,689.6
2023-05-26T18:56:04.562Z,690.8
2023-05-26T18:57:48.129Z,689.6
2023-05-26T18:59:31.990Z,687
2023-05-26T19:01:15.645Z,687.4
2023-05-26T19:02:59.219Z,688.6
2023-05-26T19:04:43.047Z,688.5
2023-05-26T19:06:26.797Z,686.6
2023-05-26T19:09:54.187Z,686.1
2023-05-26T19:11:37.762Z,685.1
2023-05-26T19:13:21.449Z,685.5
2023-05-26T19:15:05.127Z,684
2023-05-26T19:16:48.884Z,687
2023-05-26T19:18:32.532Z,687.3
2023-05-26T19:20:16.357Z,717.8
2023-05-26T19:22:00.013Z,851.1
2023-05-26T19:23:43.772Z,813.1
2023-05-26T19:25:27.386Z,810.7
2023-05-26T19:27:11.131Z,811.9
2023-05-26T19:28:54.846Z,841.9
2023-05-26T19:30:38.621Z,872
2023-05-26T19:32:22.138Z,877.3
2023-05-26T19:34:06.030Z,874.4
2023-05-26T19:35:49.776Z,874.3
2023-05-26T19:37:33.376Z,872.4
2023-05-26T19:39:17.214Z,868.2
2023-05-26T19:41:00.801Z,871.3
2023-05-26T19:42:44.539Z,871.8
2023-05-26T19:44:28.281Z,869.3
2023-05-26T19:46:11.762Z,868.2
2023-05-26T19:47:55.449Z,868.8
2023-05-26T19:49:39.152Z,867.3
2023-05-26T19:51:23.167Z,864.8
2023-05-26T19:53:06.742Z,865.9
2023-05-26T19:54:50.421Z,869.7
2023-05-26T19:56:34.022Z,873
2023-05-26T19:58:18.023Z,878.2
2023-05-26T20:00:01.558Z,883.7
2023-05-26T20:01:45.045Z,887.7
2023-05-26T20:03:28.764Z,889.6
2023-05-26T20:05:12.621Z,900.7
2023-05-26T20:06:56.167Z,916.3
2023-05-26T20:08:39.999Z,927
2023-05-26T20:10:23.559Z,936.3
2023-05-26T20:12:07.304Z,944.4
2023-05-26T20:13:50.965Z,952.9
2023-05-26T20:15:34.681Z,967
2023-05-26T20:17:18.518Z,981.9
2023-05-26T20:19:02.080Z,994.8
2023-05-26T20:20:45.783Z,1003.1
2023-05-26T20:22:29.572Z,1009.4
2023-05-26T20:24:13.285Z,1011.1
2023-05-26T20:25:56.924Z,1018.3
2023-05-26T20:27:40.797Z,1022.9
2023-05-26T20:29:24.549Z,1027.6
2023-05-26T20:31:08.016Z,1030.5
2023-05-26T20:32:51.721Z,1034.8
2023-05-26T20:34:35.414Z,1036.5
2023-05-26T20:36:19.126Z,1038.6
2023-05-26T20:38:02.820Z,1043.1
2023-05-26T20:39:46.527Z,1047.3
2023-05-26T20:41:30.313Z,1047.3
2023-05-26T20:43:13.941Z,1053.6
2023-05-26T20:44:57.652Z,1054.3
2023-05-26T20:46:41.459Z,1058.3
2023-05-26T20:48:25.155Z,1059.7
2023-05-26T20:50:08.748Z,1064
2023-05-26T20:51:52.468Z,1064.4
2023-05-26T20:53:36.221Z,1065.9
2023-05-26T20:57:03.549Z,1069.7
2023-05-26T20:58:47.279Z,1069.9
2023-05-26T21:00:30.974Z,1068.2
2023-05-26T21:02:14.713Z,1071.3
2023-05-26T21:03:58.445Z,1073.8
2023-05-26T21:05:42.386Z,1075.4
2023-05-26T21:07:25.774Z,1077.1
2023-05-26T21:09:09.450Z,1083.6
2023-05-26T21:10:53.167Z,1086.5
2023-05-26T21:12:36.922Z,1086.5
2023-05-26T21:14:20.571Z,1087.3
2023-05-26T21:16:04.299Z,1090.1
2023-05-26T21:17:48.006Z,1091.6
2023-05-26T21:19:31.702Z,1097
2023-05-26T21:21:15.458Z,1105.5
2023-05-26T21:22:59.237Z,1112.3
2023-05-26T21:24:42.835Z,1110.7
2023-05-26T21:26:26.631Z,1109.9
2023-05-26T21:28:10.255Z,1108.7
2023-05-26T21:29:54.035Z,1111.7
2023-05-26T21:31:37.745Z,1116.7
2023-05-26T21:33:21.470Z,1121.8
2023-05-26T21:35:05.033Z,1126
2023-05-26T21:36:48.724Z,1129.2
2023-05-26T21:38:32.431Z,1137.4
2023-05-26T21:40:16.122Z,1140.3
2023-05-26T21:41:59.947Z,1144.7
2023-05-26T21:43:43.531Z,1150.2
2023-05-26T21:45:27.424Z,1157
2023-05-26T21:47:10.953Z,1162.1
2023-05-26T21:48:54.801Z,1156.3
2023-05-26T21:50:38.342Z,1152.2
2023-05-26T21:52:22.182Z,1149.2
2023-05-26T21:54:05.767Z,1146.6
2023-05-26T21:55:49.800Z,1146.2
2023-05-26T21:57:33.324Z,1144.5
2023-05-26T21:59:16.868Z,1143.8
2023-05-26T22:01:00.584Z,1141.5
2023-05-26T22:02:44.413Z,1140.5
2023-05-26T22:04:28.005Z,1137.4
2023-05-26T22:06:11.689Z,1131.5
2023-05-26T22:07:55.482Z,1131.3
2023-05-26T22:09:39.106Z,1127.9
2023-05-26T22:11:22.928Z,1122.7
2023-05-26T22:13:06.498Z,1119.7
2023-05-26T22:14:50.248Z,1116.1
2023-05-26T22:16:33.991Z,1115.6
2023-05-26T22:18:17.623Z,1117.7
2023-05-26T22:20:01.307Z,1119.3
2023-05-26T22:21:45.008Z,1117.4
2023-05-26T22:23:28.705Z,1119.7
2023-05-26T22:25:12.429Z,1125.1
2023-05-26T22:26:56.163Z,1125.1
2023-05-26T22:28:39.953Z,1123.5
2023-05-26T22:30:23.612Z,1123.7
2023-05-26T22:32:07.279Z,1121.3
2023-05-26T22:33:50.958Z,1118
2023-05-26T22:35:34.648Z,1121
2023-05-26T22:37:18.438Z,1115.8
2023-05-26T22:39:02.135Z,1108.1
2023-05-26T22:40:45.772Z,1099.8
2023-05-26T22:42:29.593Z,1095.8